createdAt,value
2022-07-30T00:00:48.706Z,26.12
2022-07-30T00:03:15.706Z,25.98
2022-07-30T00:05:54.909Z,25.81
2022-07-30T00:08:22.749Z,25.69
2022-07-30T00:10:50.219Z,25.68
2022-07-30T00:13:17.438Z,25.66
2022-07-30T00:15:43.964Z,25.66
2022-07-30T00:18:11.918Z,25.73
2022-07-30T00:20:40.399Z,25.67
2022-07-30T00:23:10.169Z,25.66
2022-07-30T00:25:36.767Z,25.63
2022-07-30T00:28:03.350Z,25.63
2022-07-30T00:30:29.934Z,25.67
2022-07-30T00:32:56.562Z,25.77
2022-07-30T00:35:23.455Z,25.83
2022-07-30T00:37:50.050Z,25.81
2022-07-30T00:40:16.609Z,25.82
2022-07-30T00:42:45.298Z,25.87
2022-07-30T00:45:12.849Z,25.87
2022-07-30T00:47:40.121Z,25.85
2022-07-30T00:50:08.893Z,25.90
2022-07-30T00:52:38.383Z,25.87
2022-07-30T00:55:07.809Z,25.85
2022-07-30T00:57:34.556Z,25.78
2022-07-30T01:00:01.576Z,25.71
2022-07-30T01:02:28.214Z,25.70
2022-07-30T01:04:54.902Z,25.64
2022-07-30T01:07:21.426Z,25.65
2022-07-30T01:09:50.605Z,25.62
2022-07-30T01:12:20.317Z,25.67
2022-07-30T01:14:46.863Z,25.67
2022-07-30T01:17:13.915Z,25.61
2022-07-30T01:19:51.003Z,25.60
2022-07-30T01:22:30.703Z,25.56
2022-07-30T01:25:29.476Z,25.55
2022-07-30T01:28:05.465Z,25.60
2022-07-30T01:30:34.829Z,25.61
2022-07-30T01:33:02.067Z,25.59
2022-07-30T01:35:30.901Z,25.55
2022-07-30T01:37:57.832Z,25.44
2022-07-30T01:40:25.462Z,25.41
2022-07-30T01:42:57.178Z,25.42
2022-07-30T01:45:25.018Z,25.45
2022-07-30T01:47:53.724Z,25.47
2022-07-30T01:50:20.745Z,25.49
2022-07-30T01:52:50.899Z,25.52
2022-07-30T01:55:25.290Z,25.55
2022-07-30T01:57:52.223Z,25.51
2022-07-30T02:00:18.883Z,25.49
2022-07-30T02:02:46.164Z,25.52
2022-07-30T02:05:12.990Z,25.53
2022-07-30T02:07:45.984Z,25.51
2022-07-30T02:10:30.723Z,25.48
2022-07-30T02:12:58.026Z,25.48
2022-07-30T02:15:46.403Z,25.41
2022-07-30T02:18:30.284Z,25.38
2022-07-30T02:21:02.643Z,25.31
2022-07-30T02:23:41.249Z,25.25
2022-07-30T02:26:09.521Z,25.14
2022-07-30T02:28:38.658Z,24.99
2022-07-30T02:31:17.621Z,24.84
2022-07-30T02:33:48.626Z,24.72
2022-07-30T02:36:16.106Z,24.61
2022-07-30T02:38:43.762Z,24.55
2022-07-30T02:41:12.302Z,24.49
2022-07-30T02:43:40.882Z,24.40
2022-07-30T02:46:07.899Z,24.34
2022-07-30T02:48:36.679Z,24.28
2022-07-30T02:51:04.348Z,24.29
2022-07-30T02:53:31.202Z,24.38
2022-07-30T02:55:57.743Z,24.39
2022-07-30T02:58:25.871Z,24.39
2022-07-30T03:00:54.457Z,24.44
2022-07-30T03:03:21.879Z,24.49
2022-07-30T03:05:51.395Z,24.41
2022-07-30T03:08:19.865Z,24.39
2022-07-30T03:10:47.476Z,24.46
2022-07-30T03:13:14.621Z,24.51
2022-07-30T03:15:49.003Z,24.59
2022-07-30T03:18:17.388Z,24.69
2022-07-30T03:20:46.682Z,24.70
2022-07-30T03:23:17.102Z,24.58
2022-07-30T03:25:45.985Z,24.45
2022-07-30T03:28:14.056Z,24.34
2022-07-30T03:30:41.508Z,24.27
2022-07-30T03:33:08.038Z,24.25
2022-07-30T03:35:34.705Z,24.25
2022-07-30T03:38:01.789Z,24.39
2022-07-30T03:40:29.212Z,24.57
2022-07-30T03:42:56.134Z,24.67
2022-07-30T03:45:22.983Z,24.69
2022-07-30T03:47:49.968Z,24.58
2022-07-30T03:50:16.644Z,24.42
2022-07-30T03:52:43.518Z,24.29
2022-07-30T03:55:11.503Z,24.22
2022-07-30T03:57:38.361Z,24.18
2022-07-30T04:00:08.598Z,24.10
2022-07-30T04:02:45.321Z,24.13
2022-07-30T04:05:13.348Z,24.18
2022-07-30T04:07:41.320Z,24.13
2022-07-30T04:10:13.297Z,24.15
2022-07-30T04:12:39.803Z,24.22
2022-07-30T04:16:40.439Z,24.15
2022-07-30T04:17:56.446Z,24.13
2022-07-30T04:20:30.827Z,24.26
2022-07-30T04:22:58.333Z,24.40
2022-07-30T04:25:25.600Z,24.58
2022-07-30T04:28:03.340Z,24.84
2022-07-30T04:30:30.620Z,25.05
2022-07-30T04:32:57.167Z,25.20
2022-07-30T04:35:50.577Z,25.48
2022-07-30T04:38:15.109Z,25.65
2022-07-30T04:40:41.689Z,25.77
2022-07-30T04:43:08.303Z,26.02
2022-07-30T04:45:35.331Z,26.16
2022-07-30T04:48:01.829Z,26.19
2022-07-30T04:50:29.228Z,26.30
2022-07-30T04:52:56.060Z,26.31
2022-07-30T04:55:23.102Z,26.17
2022-07-30T04:57:51.666Z,26.08
2022-07-30T05:00:18.495Z,26.00
2022-07-30T05:02:46.708Z,25.84
2022-07-30T05:05:15.131Z,25.99
2022-07-30T05:07:42.136Z,26.14
2022-07-30T05:10:11.820Z,26.06
2022-07-30T05:12:39.138Z,25.98
2022-07-30T05:15:07.318Z,26.02
2022-07-30T05:17:34.115Z,26.03
2022-07-30T05:20:00.636Z,25.97
2022-07-30T05:22:30.094Z,25.80
2022-07-30T05:24:59.921Z,25.73
2022-07-30T05:27:26.451Z,25.67
2022-07-30T05:29:52.963Z,25.68
2022-07-30T05:32:22.713Z,25.71
2022-07-30T05:34:52.205Z,25.95
2022-07-30T05:37:18.865Z,26.30
2022-07-30T05:40:02.926Z,26.58
2022-07-30T05:42:30.195Z,26.76
2022-07-30T05:44:56.985Z,26.89
2022-07-30T05:47:23.542Z,27.03
2022-07-30T05:49:50.051Z,26.93
2022-07-30T05:52:16.609Z,26.85
2022-07-30T05:54:43.132Z,26.84
2022-07-30T05:57:09.917Z,26.74
2022-07-30T05:59:36.433Z,26.65
2022-07-30T06:02:03.869Z,26.72
2022-07-30T06:04:30.714Z,26.73
2022-07-30T06:06:57.527Z,26.79
2022-07-30T06:09:36.353Z,26.83
2022-07-30T06:12:04.196Z,26.82
2022-07-30T06:14:32.131Z,26.81
2022-07-30T06:16:59.086Z,26.87
2022-07-30T06:19:26.282Z,26.84
2022-07-30T06:22:06.072Z,26.90
2022-07-30T06:24:33.667Z,27.01
2022-07-30T06:27:00.717Z,27.16
2022-07-30T06:29:27.488Z,27.20
2022-07-30T06:31:53.978Z,27.14
2022-07-30T06:34:20.599Z,27.17
2022-07-30T06:36:47.212Z,27.30
2022-07-30T06:39:14.044Z,27.50
2022-07-30T06:41:41.648Z,27.61
2022-07-30T06:44:08.189Z,27.72
2022-07-30T06:46:34.847Z,27.86
2022-07-30T06:49:01.994Z,28.05
2022-07-30T06:51:28.595Z,28.18
2022-07-30T06:53:55.182Z,28.26
2022-07-30T06:56:21.981Z,28.37
2022-07-30T06:58:48.553Z,28.45
2022-07-30T07:01:15.332Z,28.51
2022-07-30T07:03:41.877Z,28.69
2022-07-30T07:06:08.705Z,28.90
2022-07-30T07:08:38.376Z,29.16
2022-07-30T07:11:05.018Z,29.36
2022-07-30T07:13:31.525Z,29.46
2022-07-30T07:15:58.268Z,29.53
2022-07-30T07:18:24.803Z,29.57
2022-07-30T07:20:51.358Z,29.53
2022-07-30T07:23:19.736Z,29.51
2022-07-30T07:25:47.302Z,29.72
2022-07-30T07:28:13.959Z,30.10
2022-07-30T07:30:44.388Z,30.45
2022-07-30T07:33:12.089Z,30.69
2022-07-30T07:35:48.490Z,30.82
2022-07-30T07:38:19.891Z,30.68
2022-07-30T07:40:47.254Z,30.42
2022-07-30T07:43:14.696Z,30.23
2022-07-30T07:45:42.416Z,30.16
2022-07-30T07:48:09.277Z,30.08
2022-07-30T07:50:35.895Z,30.12
2022-07-30T07:53:02.426Z,30.07
2022-07-30T07:55:29.336Z,29.99
2022-07-30T07:57:59.375Z,29.95
2022-07-30T08:00:26.501Z,29.93
2022-07-30T08:02:53.324Z,29.82
2022-07-30T08:06:02.681Z,29.79
2022-07-30T08:08:13.826Z,29.74
2022-07-30T08:10:40.383Z,29.73
2022-07-30T08:13:06.975Z,29.74
2022-07-30T08:15:53.505Z,29.90
2022-07-30T08:18:20.018Z,30.04
2022-07-30T08:20:46.613Z,30.21
2022-07-30T08:23:13.167Z,30.40
2022-07-30T08:25:39.703Z,30.52
2022-07-30T08:28:06.187Z,30.60
2022-07-30T08:30:33.129Z,30.69
2022-07-30T08:32:59.695Z,30.75
2022-07-30T08:35:26.218Z,30.77
2022-07-30T08:37:52.809Z,30.67
2022-07-30T08:40:20.412Z,30.53
2022-07-30T08:42:47.445Z,30.48
2022-07-30T08:45:14.707Z,30.37
2022-07-30T08:47:41.508Z,30.30
2022-07-30T08:50:08.753Z,30.32
2022-07-30T08:52:36.325Z,30.38
2022-07-30T08:55:04.955Z,30.48
2022-07-30T08:57:32.712Z,30.55
2022-07-30T09:00:01.599Z,30.55
2022-07-30T09:02:31.264Z,30.49
2022-07-30T09:04:58.012Z,30.44
2022-07-30T09:07:24.784Z,30.42
2022-07-30T09:09:51.320Z,30.47
2022-07-30T09:12:36.590Z,30.53
2022-07-30T09:15:08.747Z,30.48
2022-07-30T09:17:53.950Z,30.39
2022-07-30T09:20:22.582Z,30.30
2022-07-30T09:22:53.324Z,30.28
2022-07-30T09:25:44.823Z,30.30
2022-07-30T09:28:15.678Z,30.26
2022-07-30T09:30:54.286Z,30.18
2022-07-30T09:33:43.247Z,30.18
2022-07-30T09:36:12.595Z,30.30
2022-07-30T09:38:50.484Z,30.41
2022-07-30T09:41:41.196Z,30.41
2022-07-30T09:44:08.015Z,30.47
2022-07-30T09:46:47.744Z,30.51
2022-07-30T09:49:26.428Z,30.46
2022-07-30T09:51:57.040Z,30.52
2022-07-30T09:54:43.267Z,30.66
2022-07-30T09:57:25.656Z,30.71
2022-07-30T09:59:54.065Z,30.73
2022-07-30T10:02:26.436Z,30.71
2022-07-30T10:04:53.282Z,30.65
2022-07-30T10:07:25.642Z,30.47
2022-07-30T10:09:54.213Z,30.40
2022-07-30T10:12:24.171Z,30.41
2022-07-30T10:14:53.566Z,30.37
2022-07-30T10:17:20.941Z,30.34
2022-07-30T10:19:48.999Z,30.31
2022-07-30T10:22:17.188Z,30.29
2022-07-30T10:24:44.734Z,30.33
2022-07-30T10:27:12.009Z,30.48
2022-07-30T10:29:42.854Z,30.52
2022-07-30T10:32:09.817Z,30.47
2022-07-30T10:34:42.409Z,30.62
2022-07-30T10:37:09.799Z,30.71
2022-07-30T10:40:17.316Z,30.78
2022-07-30T10:43:11.992Z,30.79
2022-07-30T10:46:19.896Z,30.77
2022-07-30T10:48:49.801Z,30.80
2022-07-30T10:51:25.326Z,30.69
2022-07-30T10:54:00.901Z,30.53
2022-07-30T10:56:27.427Z,30.37
2022-07-30T11:01:59.711Z,30.30
2022-07-30T11:04:30.327Z,30.25
2022-07-30T11:07:22.058Z,30.19
2022-07-30T11:10:04.286Z,30.11
2022-07-30T11:12:41.396Z,30.14
2022-07-30T11:15:19.023Z,30.17
2022-07-30T11:18:12.254Z,30.14
2022-07-30T11:20:39.131Z,30.18
2022-07-30T11:23:39.231Z,30.28
2022-07-30T11:26:06.077Z,30.45
2022-07-30T11:28:41.213Z,30.47
2022-07-30T11:31:56.639Z,30.48
2022-07-30T11:34:26.404Z,30.74
2022-07-30T11:37:18.620Z,30.89
2022-07-30T11:39:55.221Z,30.86
2022-07-30T11:42:33.530Z,30.87
2022-07-30T11:45:18.495Z,31.18
2022-07-30T11:47:46.483Z,31.47
2022-07-30T11:50:28.624Z,31.75
2022-07-30T11:53:18.257Z,31.95
2022-07-30T11:55:53.171Z,31.90
2022-07-30T11:58:30.326Z,31.76
2022-07-30T12:01:01.809Z,31.54
2022-07-30T12:03:31.778Z,31.33
2022-07-30T12:06:09.933Z,31.19
2022-07-30T12:08:43.815Z,31.16
2022-07-30T12:11:10.847Z,31.20
2022-07-30T12:13:45.273Z,31.25
2022-07-30T12:16:16.808Z,31.30
2022-07-30T12:18:44.437Z,31.32
2022-07-30T12:21:17.638Z,31.39
2022-07-30T12:24:07.499Z,31.55
2022-07-30T12:26:35.385Z,31.70
2022-07-30T12:29:05.687Z,31.81
2022-07-30T12:31:39.681Z,31.79
2022-07-30T12:34:19.972Z,31.78
2022-07-30T12:36:46.538Z,31.76
2022-07-30T12:39:19.475Z,31.98
2022-07-30T12:41:52.614Z,32.29
2022-07-30T12:44:35.191Z,32.58
2022-07-30T12:47:03.269Z,32.72
2022-07-30T12:49:37.827Z,32.86
2022-07-30T12:52:27.715Z,33.01
2022-07-30T12:55:04.531Z,33.18
2022-07-30T12:58:07.952Z,33.28
2022-07-30T13:00:44.669Z,33.30
2022-07-30T13:03:28.186Z,33.33
2022-07-30T13:05:56.639Z,33.26
2022-07-30T13:08:55.507Z,33.18
2022-07-30T13:11:24.199Z,33.20
2022-07-30T13:13:51.354Z,33.29
2022-07-30T13:16:19.520Z,33.44
2022-07-30T13:18:46.647Z,33.52
2022-07-30T13:21:13.464Z,33.57
2022-07-30T13:23:40.927Z,33.67
2022-07-30T13:26:09.099Z,33.85
2022-07-30T13:28:36.850Z,33.92
2022-07-30T13:31:03.715Z,33.96
2022-07-30T13:33:30.393Z,33.88
2022-07-30T13:35:57.125Z,33.56
2022-07-30T13:38:23.646Z,33.19
2022-07-30T13:40:53.230Z,32.89
2022-07-30T13:43:20.149Z,32.70
2022-07-30T13:45:47.357Z,32.54
2022-07-30T13:48:14.306Z,32.51
2022-07-30T13:50:41.532Z,32.58
2022-07-30T13:53:08.962Z,32.72
2022-07-30T13:55:36.628Z,32.81
2022-07-30T13:58:03.545Z,32.89
2022-07-30T14:00:32.680Z,32.83
2022-07-30T14:03:04.311Z,32.65
2022-07-30T14:05:31.418Z,32.49
2022-07-30T14:07:57.984Z,32.34
2022-07-30T14:10:25.009Z,32.20
2022-07-30T14:12:55.041Z,32.11
2022-07-30T14:15:22.781Z,32.07
2022-07-30T14:17:56.505Z,32.12
2022-07-30T14:20:24.213Z,32.27
2022-07-30T14:22:51.003Z,32.39
2022-07-30T14:25:21.099Z,32.47
2022-07-30T14:27:48.226Z,32.61
2022-07-30T14:30:14.908Z,32.78
2022-07-30T14:32:41.588Z,32.88
2022-07-30T14:35:09.892Z,32.82
2022-07-30T14:37:38.099Z,32.74
2022-07-30T14:40:11.378Z,32.69
2022-07-30T14:42:39.914Z,32.63
2022-07-30T14:45:08.068Z,32.62
2022-07-30T14:47:34.751Z,32.67
2022-07-30T14:50:01.382Z,32.83
2022-07-30T14:52:28.151Z,32.87
2022-07-30T14:54:54.628Z,32.86
2022-07-30T14:57:21.218Z,32.80
2022-07-30T14:59:47.739Z,32.80
2022-07-30T15:02:14.409Z,32.95
2022-07-30T15:04:41.188Z,33.20
2022-07-30T15:07:07.716Z,33.23
2022-07-30T15:09:34.272Z,33.25
2022-07-30T15:12:08.666Z,33.14
2022-07-30T15:14:37.440Z,32.89
2022-07-30T15:17:04.671Z,32.76
2022-07-30T15:19:32.273Z,32.64
2022-07-30T15:22:02.149Z,32.63
2022-07-30T15:24:30.454Z,32.64
2022-07-30T15:26:57.026Z,32.61
2022-07-30T15:29:24.314Z,32.42
2022-07-30T15:31:51.622Z,32.27
2022-07-30T15:34:18.232Z,32.12
2022-07-30T15:36:45.076Z,31.98
2022-07-30T15:39:11.640Z,31.88
2022-07-30T15:41:38.376Z,31.95
2022-07-30T15:44:05.049Z,32.12
2022-07-30T15:46:31.603Z,32.24
2022-07-30T15:48:58.131Z,32.36
2022-07-30T15:51:24.725Z,32.47
2022-07-30T15:53:51.217Z,32.54
2022-07-30T15:56:18.541Z,32.63
2022-07-30T15:58:45.063Z,32.69
2022-07-30T16:01:11.824Z,32.73
2022-07-30T16:03:38.719Z,32.82
2022-07-30T16:06:05.340Z,32.79
2022-07-30T16:08:31.869Z,32.71
2022-07-30T16:10:58.396Z,32.57
2022-07-30T16:13:24.973Z,32.56
2022-07-30T16:15:51.567Z,32.53
2022-07-30T16:18:18.068Z,32.55
2022-07-30T16:20:44.569Z,32.50
2022-07-30T16:23:14.088Z,32.38
2022-07-30T16:25:43.520Z,32.28
2022-07-30T16:28:10.020Z,32.30
2022-07-30T16:30:36.575Z,32.26
2022-07-30T16:33:17.920Z,32.25
2022-07-30T16:35:48.841Z,32.20
2022-07-30T16:38:17.384Z,32.02
2022-07-30T16:40:44.072Z,31.81
2022-07-30T16:43:10.614Z,31.67
2022-07-30T16:45:37.165Z,31.55
2022-07-30T16:48:04.182Z,31.47
2022-07-30T16:50:30.866Z,31.38
2022-07-30T16:52:57.424Z,31.34
2022-07-30T16:55:23.988Z,31.28
2022-07-30T16:57:50.492Z,31.41
2022-07-30T17:00:18.205Z,31.61
2022-07-30T17:02:45.033Z,31.88
2022-07-30T17:05:13.823Z,32.02
2022-07-30T17:07:40.775Z,32.06
2022-07-30T17:10:07.712Z,32.10
2022-07-30T17:12:38.856Z,32.16
2022-07-30T17:15:07.684Z,32.25
2022-07-30T17:17:34.257Z,32.36
2022-07-30T17:20:01.937Z,32.45
2022-07-30T17:22:29.004Z,32.51
2022-07-30T17:24:55.531Z,32.53
2022-07-30T17:27:22.055Z,32.61
2022-07-30T17:29:50.339Z,32.72
2022-07-30T17:32:17.958Z,32.80
2022-07-30T17:34:44.685Z,32.76
2022-07-30T17:37:11.280Z,32.64
2022-07-30T17:40:19.107Z,32.56
2022-07-30T17:42:26.181Z,32.53
2022-07-30T17:44:52.678Z,32.46
2022-07-30T17:47:19.254Z,32.21
2022-07-30T17:49:46.437Z,31.96
2022-07-30T17:52:13.181Z,31.75
2022-07-30T17:54:40.131Z,31.54
2022-07-30T17:57:07.167Z,31.38
2022-07-30T17:59:33.706Z,31.26
2022-07-30T18:02:00.816Z,31.15
2022-07-30T18:04:27.633Z,31.01
2022-07-30T18:06:54.280Z,30.90
2022-07-30T18:09:20.800Z,30.83
2022-07-30T18:11:47.493Z,30.80
2022-07-30T18:14:14.022Z,30.76
2022-07-30T18:16:40.540Z,30.71
2022-07-30T18:19:07.068Z,30.65
2022-07-30T18:21:35.091Z,30.68
2022-07-30T18:24:05.521Z,30.73
2022-07-30T18:26:36.739Z,30.75
2022-07-30T18:29:03.905Z,31.08
2022-07-30T18:31:30.705Z,31.38
2022-07-30T18:33:57.306Z,31.48
2022-07-30T18:36:23.924Z,31.56
2022-07-30T18:38:51.265Z,31.62
2022-07-30T18:41:17.972Z,31.72
2022-07-30T18:43:47.905Z,31.80
2022-07-30T18:46:15.633Z,31.79
2022-07-30T18:48:42.164Z,31.69
2022-07-30T18:51:13.702Z,31.69
2022-07-30T18:53:41.594Z,31.68
2022-07-30T18:56:08.183Z,31.74
2022-07-30T18:58:34.763Z,31.80
2022-07-30T19:01:01.432Z,31.73
2022-07-30T19:03:27.978Z,31.72
2022-07-30T19:05:54.474Z,31.75
2022-07-30T19:08:21.417Z,31.73
2022-07-30T19:10:48.596Z,31.74
2022-07-30T19:13:15.108Z,31.79
2022-07-30T19:15:41.729Z,31.65
2022-07-30T19:18:10.235Z,31.38
2022-07-30T19:20:36.997Z,31.13
2022-07-30T19:23:05.063Z,30.94
2022-07-30T19:25:33.153Z,30.80
2022-07-30T19:28:01.414Z,30.70
2022-07-30T19:30:31.402Z,30.63
2022-07-30T19:33:14.203Z,30.53
2022-07-30T19:35:42.445Z,30.44
2022-07-30T19:38:09.768Z,30.43
2022-07-30T19:40:39.454Z,30.44
2022-07-30T19:43:06.598Z,30.46
2022-07-30T19:45:47.368Z,30.45
2022-07-30T19:48:15.122Z,30.47
2022-07-30T19:50:55.914Z,30.46
2022-07-30T19:53:22.420Z,30.45
2022-07-30T19:55:48.945Z,30.39
2022-07-30T19:58:18.616Z,30.30
2022-07-30T20:00:49.420Z,30.27
2022-07-30T20:06:07.642Z,30.21
2022-07-30T20:08:35.535Z,30.21
2022-07-30T20:11:03.386Z,30.21
2022-07-30T20:13:45.214Z,30.18
2022-07-30T20:16:16.258Z,30.02
2022-07-30T20:18:45.051Z,29.84
2022-07-30T20:21:15.454Z,29.66
2022-07-30T20:23:43.316Z,29.52
2022-07-30T20:26:13.727Z,29.41
2022-07-30T20:28:41.981Z,29.31
2022-07-30T20:31:08.642Z,29.26
2022-07-30T20:33:37.763Z,29.31
2022-07-30T20:36:04.873Z,29.62
2022-07-30T20:38:33.750Z,29.90
2022-07-30T20:41:02.302Z,30.01
2022-07-30T20:43:29.149Z,30.09
2022-07-30T20:45:55.916Z,30.06
2022-07-30T20:48:25.700Z,30.02
2022-07-30T20:50:52.564Z,29.99
2022-07-30T20:53:19.836Z,29.98
2022-07-30T20:55:47.402Z,29.95
2022-07-30T20:58:16.579Z,29.91
2022-07-30T21:00:49.837Z,29.95
2022-07-30T21:03:21.545Z,29.93
2022-07-30T21:05:48.664Z,29.90
2022-07-30T21:08:17.872Z,29.82
2022-07-30T21:10:44.887Z,29.78
2022-07-30T21:13:12.746Z,29.79
2022-07-30T21:15:45.291Z,29.82
2022-07-30T21:18:26.478Z,29.79
2022-07-30T21:20:53.107Z,29.78
2022-07-30T21:23:22.385Z,29.77
2022-07-30T21:26:00.575Z,29.68
2022-07-30T21:28:29.208Z,29.64
2022-07-30T21:30:57.105Z,29.57
2022-07-30T21:33:24.255Z,29.66
2022-07-30T21:35:57.494Z,29.80
2022-07-30T21:38:26.512Z,29.87
2022-07-30T21:40:53.711Z,29.75
2022-07-30T21:43:40.566Z,29.77
2022-07-30T21:46:08.198Z,29.85
2022-07-30T21:48:37.035Z,29.91
2022-07-30T21:51:04.136Z,29.92
2022-07-30T21:53:46.023Z,29.91
2022-07-30T21:56:13.552Z,29.92
2022-07-30T21:58:41.094Z,29.86
2022-07-30T22:01:17.510Z,29.73
2022-07-30T22:04:03.553Z,29.61
2022-07-30T22:06:36.559Z,29.63
2022-07-30T22:09:18.775Z,29.57
2022-07-30T22:11:52.592Z,29.54
2022-07-30T22:14:19.105Z,29.49
2022-07-30T22:16:46.568Z,29.52
2022-07-30T22:19:14.837Z,29.49
2022-07-30T22:21:42.805Z,29.34
2022-07-30T22:24:29.186Z,29.32
2022-07-30T22:26:56.833Z,29.24
2022-07-30T22:29:24.172Z,29.18
2022-07-30T22:31:50.887Z,29.18
2022-07-30T22:34:18.590Z,29.19
2022-07-30T22:36:46.074Z,29.22
2022-07-30T22:39:12.676Z,29.10
2022-07-30T22:41:39.307Z,29.05
2022-07-30T22:44:06.736Z,28.99
2022-07-30T22:46:38.772Z,29.02
2022-07-30T22:49:23.277Z,28.91
2022-07-30T22:52:17.853Z,28.88
2022-07-30T22:54:39.143Z,28.97
2022-07-30T22:57:05.713Z,28.96
2022-07-30T22:59:58.289Z,29.00
2022-07-30T23:02:18.756Z,29.01
2022-07-30T23:04:47.164Z,28.93
2022-07-30T23:07:18.960Z,28.81
2022-07-30T23:09:51.569Z,28.73
2022-07-30T23:12:15.733Z,30.24
2022-07-30T23:12:20.144Z,28.65
2022-07-30T23:14:47.180Z,28.58
2022-07-30T23:17:13.658Z,28.57
2022-07-30T23:19:40.167Z,28.49
2022-07-30T23:22:07.079Z,28.48
2022-07-30T23:24:33.692Z,28.46
2022-07-30T23:27:00.480Z,28.39
2022-07-30T23:32:09.187Z,28.37
2022-07-30T23:34:36.214Z,28.44
2022-07-30T23:37:05.212Z,28.51
2022-07-30T23:39:32.515Z,28.52
2022-07-30T23:41:59.116Z,28.46
2022-07-30T23:44:27.820Z,28.45
2022-07-30T23:46:54.394Z,28.47
2022-07-30T23:49:24.022Z,28.49
2022-07-30T23:51:53.475Z,28.47
2022-07-30T23:54:21.582Z,28.42
2022-07-30T23:56:53.202Z,28.26
2022-07-30T23:59:19.746Z,28.22
